createdAt,value
2023-01-12T00:02:19.706Z,6.70
2023-01-12T00:04:47.217Z,6.70
2023-01-12T00:07:16.702Z,6.60
2023-01-12T00:09:44.175Z,6.60
2023-01-12T00:12:12.629Z,6.60
2023-01-12T00:14:40.541Z,6.70
2023-01-12T00:17:09.358Z,6.70
2023-01-12T00:19:39.073Z,6.70
2023-01-12T00:22:12.365Z,6.60
2023-01-12T00:24:42.108Z,6.60
2023-01-12T00:27:12.960Z,6.60
2023-01-12T00:29:40.632Z,6.60
2023-01-12T00:32:12.128Z,6.60
2023-01-12T00:34:39.943Z,6.60
2023-01-12T00:37:07.390Z,6.50
2023-01-12T00:39:40.591Z,6.50
2023-01-12T00:42:26.694Z,6.40
2023-01-12T00:45:12.399Z,6.40
2023-01-12T00:47:40.235Z,6.40
2023-01-12T00:50:07.980Z,6.40
2023-01-12T00:52:35.432Z,6.30
2023-01-12T00:55:02.939Z,6.30
2023-01-12T00:57:30.601Z,6.40
2023-01-12T01:00:00.806Z,6.40
2023-01-12T01:02:28.931Z,6.40
2023-01-12T01:04:56.883Z,6.40
2023-01-12T01:07:24.726Z,6.40
2023-01-12T01:09:52.147Z,6.50
2023-01-12T01:12:19.609Z,6.50
2023-01-12T01:14:48.208Z,6.50
2023-01-12T01:17:16.220Z,6.50
2023-01-12T01:19:44.014Z,6.50
2023-01-12T01:22:13.266Z,6.50
2023-01-12T01:24:41.976Z,6.40
2023-01-12T01:27:09.621Z,6.40
2023-01-12T01:29:37.205Z,6.40
2023-01-12T01:32:04.809Z,6.40
2023-01-12T01:34:32.224Z,6.40
2023-01-12T01:36:59.593Z,6.50
2023-01-12T01:39:26.942Z,6.50
2023-01-12T01:41:54.308Z,6.60
2023-01-12T01:44:30.735Z,6.60
2023-01-12T01:47:06.518Z,6.60
2023-01-12T01:49:45.621Z,6.60
2023-01-12T01:52:28.000Z,6.50
2023-01-12T01:55:13.358Z,6.50
2023-01-12T01:57:46.215Z,6.60
2023-01-12T02:00:14.867Z,6.60
2023-01-12T02:02:44.235Z,6.60
2023-01-12T02:05:14.247Z,6.50
2023-01-12T02:07:42.129Z,6.60
2023-01-12T02:10:10.416Z,6.60
2023-01-12T02:12:56.296Z,6.60
2023-01-12T02:15:45.836Z,6.50
2023-01-12T02:18:25.837Z,6.50
2023-01-12T02:21:05.582Z,6.50
2023-01-12T02:24:09.975Z,6.60
2023-01-12T02:26:56.165Z,6.60
2023-01-12T02:29:45.034Z,6.60
2023-01-12T02:32:54.061Z,6.60
2023-01-12T02:35:30.705Z,6.60
2023-01-12T02:38:10.195Z,6.60
2023-01-12T02:40:59.747Z,6.60
2023-01-12T02:43:31.577Z,6.50
2023-01-12T02:46:20.064Z,6.50
2023-01-12T02:48:55.229Z,6.50
2023-01-12T02:51:34.371Z,6.50
2023-01-12T02:54:06.926Z,6.50
2023-01-12T02:56:57.757Z,6.50
2023-01-12T02:59:31.815Z,6.50
2023-01-12T03:02:08.783Z,6.60
2023-01-12T03:04:36.824Z,6.50
2023-01-12T03:07:04.043Z,6.50
2023-01-12T03:09:50.026Z,6.60
2023-01-12T03:12:34.294Z,6.50
2023-01-12T03:15:06.967Z,6.50
2023-01-12T03:18:01.008Z,6.50
2023-01-12T03:20:35.285Z,6.40
2023-01-12T03:23:09.558Z,6.40
2023-01-12T03:25:40.907Z,6.40
2023-01-12T03:28:11.858Z,6.40
2023-01-12T03:30:43.550Z,6.40
2023-01-12T03:33:12.407Z,6.40
2023-01-12T03:35:46.561Z,6.40
2023-01-12T03:38:25.039Z,6.40
2023-01-12T03:41:26.383Z,6.40
2023-01-12T03:43:57.919Z,6.30
2023-01-12T03:46:40.920Z,6.30
2023-01-12T03:49:25.138Z,6.30
2023-01-12T03:51:54.844Z,6.20
2023-01-12T03:54:23.519Z,6.00
2023-01-12T03:56:54.824Z,5.90
2023-01-12T03:59:23.247Z,5.90
2023-01-12T04:01:51.885Z,5.90
2023-01-12T04:04:20.621Z,5.80
2023-01-12T04:06:48.154Z,5.90
2023-01-12T04:09:15.548Z,6.10
2023-01-12T04:12:01.365Z,6.20
2023-01-12T04:14:28.780Z,6.10
2023-01-12T04:16:56.390Z,6.10
2023-01-12T04:19:24.287Z,6.10
2023-01-12T04:22:10.267Z,6.00
2023-01-12T04:24:37.602Z,6.00
2023-01-12T04:27:05.229Z,5.80
2023-01-12T04:29:33.166Z,5.60
2023-01-12T04:32:00.751Z,5.50
2023-01-12T04:34:28.161Z,5.50
2023-01-12T04:36:55.799Z,5.40
2023-01-12T04:39:23.174Z,5.30
2023-01-12T04:41:50.632Z,5.30
2023-01-12T04:44:18.283Z,5.20
2023-01-12T04:46:45.661Z,5.20
2023-01-12T04:49:14.269Z,5.20
2023-01-12T04:51:41.593Z,5.10
2023-01-12T04:54:12.411Z,5.10
2023-01-12T04:56:40.691Z,5.10
2023-01-12T04:59:10.521Z,5.00
2023-01-12T05:01:39.451Z,4.90
2023-01-12T05:04:07.851Z,4.80
2023-01-12T05:06:35.543Z,4.80
2023-01-12T05:09:21.680Z,4.70
2023-01-12T05:11:49.094Z,4.70
2023-01-12T05:14:16.468Z,4.60
2023-01-12T05:16:44.135Z,4.60
2023-01-12T05:19:11.983Z,4.60
2023-01-12T05:21:39.771Z,4.40
2023-01-12T05:24:07.449Z,4.30
2023-01-12T05:26:36.020Z,4.30
2023-01-12T05:29:03.450Z,4.20
2023-01-12T05:31:30.699Z,4.10
2023-01-12T05:33:58.106Z,4.10
2023-01-12T05:36:26.621Z,4.00
2023-01-12T05:38:54.087Z,4.00
2023-01-12T05:41:23.432Z,3.90
2023-01-12T05:43:51.088Z,3.80
2023-01-12T05:46:27.719Z,3.80
2023-01-12T05:48:56.714Z,3.70
2023-01-12T05:51:25.850Z,3.70
2023-01-12T05:53:53.305Z,3.60
2023-01-12T05:56:26.009Z,3.60
2023-01-12T05:58:59.769Z,3.50
2023-01-12T06:01:29.261Z,3.50
2023-01-12T06:03:59.034Z,3.50
2023-01-12T06:06:28.452Z,3.60
2023-01-12T06:08:55.788Z,3.70
2023-01-12T06:11:41.685Z,3.70
2023-01-12T06:14:13.201Z,3.90
2023-01-12T06:16:43.070Z,3.90
2023-01-12T06:19:14.924Z,4.00
2023-01-12T06:21:42.441Z,4.00
2023-01-12T06:24:10.040Z,4.00
2023-01-12T06:26:38.200Z,4.00
2023-01-12T06:29:07.568Z,3.90
2023-01-12T06:31:35.151Z,3.90
2023-01-12T06:34:02.728Z,3.90
2023-01-12T06:36:30.077Z,3.90
2023-01-12T06:38:57.635Z,3.80
2023-01-12T06:41:43.583Z,3.80
2023-01-12T06:44:11.005Z,3.70
2023-01-12T06:46:38.424Z,3.70
2023-01-12T06:49:06.061Z,3.60
2023-01-12T06:51:33.402Z,3.60
2023-01-12T06:54:01.676Z,3.60
2023-01-12T06:56:29.097Z,3.60
2023-01-12T06:58:56.467Z,3.50
2023-01-12T07:01:25.959Z,3.60
2023-01-12T07:03:54.780Z,3.60
2023-01-12T07:06:22.091Z,3.60
2023-01-12T07:08:52.619Z,3.60
2023-01-12T07:11:19.861Z,3.60
2023-01-12T07:13:47.194Z,3.60
2023-01-12T07:16:14.577Z,3.70
2023-01-12T07:18:42.283Z,3.70
2023-01-12T07:21:13.719Z,3.70
2023-01-12T07:23:44.420Z,3.80
2023-01-12T07:26:12.931Z,3.80
2023-01-12T07:28:40.419Z,3.80
2023-01-12T07:31:08.181Z,3.90
2023-01-12T07:33:38.023Z,3.90
2023-01-12T07:36:06.362Z,3.90
2023-01-12T07:38:34.163Z,3.90
2023-01-12T07:41:02.929Z,3.90
2023-01-12T07:43:31.232Z,3.90
2023-01-12T07:45:59.576Z,3.80
2023-01-12T07:48:27.751Z,3.70
2023-01-12T07:50:55.258Z,3.70
2023-01-12T07:53:22.758Z,3.70
2023-01-12T07:55:50.245Z,3.70
2023-01-12T07:58:17.629Z,3.80
2023-01-12T08:00:47.135Z,3.90
2023-01-12T08:03:15.557Z,4.00
2023-01-12T08:05:44.339Z,4.30
2023-01-12T08:08:12.515Z,4.80
2023-01-12T08:10:41.246Z,5.10
2023-01-12T08:13:08.533Z,5.50
2023-01-12T08:15:48.136Z,5.70
2023-01-12T08:18:46.682Z,5.70
2023-01-12T08:21:18.614Z,5.70
2023-01-12T08:23:54.090Z,5.80
2023-01-12T08:26:27.638Z,5.90
2023-01-12T08:29:08.176Z,6.00
2023-01-12T08:31:37.253Z,6.30
2023-01-12T08:34:04.777Z,6.60
2023-01-12T08:36:33.266Z,6.90
2023-01-12T08:39:02.054Z,7.00
2023-01-12T08:41:37.830Z,7.10
2023-01-12T08:44:11.094Z,7.10
2023-01-12T08:46:54.127Z,7.10
2023-01-12T08:49:25.711Z,7.10
2023-01-12T08:51:53.183Z,7.10
2023-01-12T08:54:21.808Z,7.00
2023-01-12T08:56:54.647Z,6.90
2023-01-12T08:59:22.142Z,6.90
2023-01-12T09:01:49.559Z,6.90
2023-01-12T09:04:17.489Z,6.80
2023-01-12T09:06:46.133Z,6.80
2023-01-12T09:09:19.583Z,6.90
2023-01-12T09:11:49.705Z,6.90
2023-01-12T09:14:18.159Z,6.90
2023-01-12T09:16:45.772Z,7.10
2023-01-12T09:19:13.335Z,7.50
2023-01-12T09:21:42.501Z,7.70
2023-01-12T09:24:11.129Z,8.00
2023-01-12T09:26:43.748Z,8.30
2023-01-12T09:29:13.055Z,8.90
2023-01-12T09:31:42.842Z,9.70
2023-01-12T09:34:10.620Z,10.80
2023-01-12T09:36:40.495Z,11.50
2023-01-12T09:39:12.773Z,11.90
2023-01-12T09:42:06.497Z,11.90
2023-01-12T09:45:02.396Z,12.00
2023-01-12T09:47:53.395Z,12.50
2023-01-12T09:50:28.822Z,13.00
2023-01-12T09:53:07.820Z,13.10
2023-01-12T09:56:15.639Z,13.10
2023-01-12T09:59:01.401Z,13.60
2023-01-12T10:01:30.189Z,13.70
2023-01-12T10:04:00.326Z,13.50
2023-01-12T10:06:28.278Z,13.90
2023-01-12T10:09:00.309Z,13.40
2023-01-12T10:11:30.692Z,13.40
2023-01-12T10:14:35.305Z,12.80
2023-01-12T10:17:41.903Z,13.10
2023-01-12T10:20:27.127Z,13.70
2023-01-12T10:23:10.557Z,13.80
2023-01-12T10:25:54.652Z,14.30
2023-01-12T10:28:27.182Z,14.70
2023-01-12T10:30:56.564Z,14.20
2023-01-12T10:33:29.881Z,13.90
2023-01-12T10:36:17.827Z,13.30
2023-01-12T10:38:58.673Z,13.10
2023-01-12T10:41:33.241Z,13.20
2023-01-12T10:44:00.751Z,12.90
2023-01-12T10:46:33.542Z,12.40
2023-01-12T10:49:23.326Z,11.90
2023-01-12T10:52:00.447Z,11.50
2023-01-12T10:54:33.675Z,11.20
2023-01-12T10:57:03.470Z,11.20
2023-01-12T10:59:34.431Z,11.30
2023-01-12T11:02:16.781Z,11.30
2023-01-12T11:04:48.487Z,11.10
2023-01-12T11:07:30.385Z,10.90
2023-01-12T11:10:32.766Z,10.90
2023-01-12T11:13:06.266Z,11.00
2023-01-12T11:15:39.377Z,11.20
2023-01-12T11:18:27.335Z,11.30
2023-01-12T11:21:07.769Z,11.10
2023-01-12T11:23:44.229Z,10.60
2023-01-12T11:26:21.461Z,10.30
2023-01-12T11:28:52.649Z,10.20
2023-01-12T11:31:32.303Z,10.10
2023-01-12T11:34:04.275Z,10.10
2023-01-12T11:36:36.267Z,10.10
2023-01-12T11:39:13.253Z,10.00
2023-01-12T11:42:05.661Z,10.00
2023-01-12T11:44:57.698Z,10.10
2023-01-12T11:47:30.872Z,10.10
2023-01-12T11:50:13.629Z,10.20
2023-01-12T11:52:41.650Z,10.20
2023-01-12T11:55:26.708Z,10.20
2023-01-12T11:58:06.921Z,10.10
2023-01-12T12:01:04.964Z,10.20
2023-01-12T12:03:56.921Z,10.30
2023-01-12T12:06:47.879Z,10.60
2023-01-12T12:09:50.608Z,10.80
2023-01-12T12:12:36.813Z,10.90
2023-01-12T12:15:16.343Z,11.30
2023-01-12T12:18:16.147Z,11.70
2023-01-12T12:21:13.707Z,11.80
2023-01-12T12:24:08.176Z,11.60
2023-01-12T12:27:00.095Z,11.30
2023-01-12T12:29:39.734Z,11.00
2023-01-12T12:32:26.580Z,10.90
2023-01-12T12:34:55.261Z,10.90
2023-01-12T12:37:44.279Z,11.00
2023-01-12T12:40:21.034Z,11.00
2023-01-12T12:43:40.004Z,11.00
2023-01-12T12:46:31.838Z,11.00
2023-01-12T12:49:01.703Z,10.90
2023-01-12T12:51:31.920Z,10.70
2023-01-12T12:54:01.319Z,10.60
2023-01-12T12:56:30.720Z,10.60
2023-01-12T12:58:59.779Z,10.70
2023-01-12T13:01:30.000Z,10.80
2023-01-12T13:04:05.668Z,10.90
2023-01-12T13:06:39.484Z,11.30
2023-01-12T13:09:32.742Z,11.90
2023-01-12T13:12:00.835Z,12.60
2023-01-12T13:14:35.665Z,13.10
2023-01-12T13:17:38.227Z,13.30
2023-01-12T13:20:13.682Z,13.30
2023-01-12T13:22:52.007Z,13.00
2023-01-12T13:25:27.586Z,12.40
2023-01-12T13:28:01.208Z,11.80
2023-01-12T13:30:32.275Z,11.60
2023-01-12T13:33:17.421Z,11.50
2023-01-12T13:35:45.279Z,11.60
2023-01-12T13:38:34.343Z,12.00
2023-01-12T13:41:41.759Z,12.70
2023-01-12T13:44:14.991Z,13.20
2023-01-12T13:46:49.768Z,13.40
2023-01-12T13:49:29.162Z,13.00
2023-01-12T13:52:03.143Z,12.50
2023-01-12T13:54:30.915Z,11.80
2023-01-12T13:57:01.736Z,11.40
2023-01-12T13:59:30.413Z,11.10
2023-01-12T14:01:58.873Z,10.90
2023-01-12T14:04:55.303Z,10.60
2023-01-12T14:07:53.239Z,10.30
2023-01-12T14:10:36.547Z,10.30
2023-01-12T14:13:06.628Z,10.20
2023-01-12T14:15:57.274Z,10.20
2023-01-12T14:18:26.955Z,10.10
2023-01-12T14:20:59.519Z,9.90
2023-01-12T14:23:26.839Z,9.80
2023-01-12T14:26:16.817Z,9.70
2023-01-12T14:28:47.076Z,9.60
2023-01-12T14:31:30.996Z,9.40
2023-01-12T14:34:02.325Z,9.40
2023-01-12T14:36:35.155Z,9.30
2023-01-12T14:39:09.546Z,9.30
2023-01-12T14:41:56.186Z,9.20
2023-01-12T14:44:44.511Z,9.20
2023-01-12T14:47:24.473Z,9.20
2023-01-12T14:49:52.025Z,9.10
2023-01-12T14:52:33.117Z,9.10
2023-01-12T14:55:26.092Z,9.20
2023-01-12T14:58:05.607Z,9.20
2023-01-12T15:00:36.488Z,9.10
2023-01-12T15:03:15.585Z,9.10
2023-01-12T15:05:44.798Z,9.00
2023-01-12T15:08:12.439Z,9.00
2023-01-12T15:10:42.757Z,9.00
2023-01-12T15:13:34.019Z,8.90
2023-01-12T15:16:21.318Z,8.90
2023-01-12T15:19:21.419Z,9.00
2023-01-12T15:22:07.602Z,9.00
2023-01-12T15:24:55.945Z,8.90
2023-01-12T15:27:25.654Z,9.00
2023-01-12T15:29:53.018Z,9.00
2023-01-12T15:32:47.237Z,8.90
2023-01-12T15:35:25.644Z,8.90
2023-01-12T15:37:57.418Z,8.90
2023-01-12T15:40:26.412Z,8.80
2023-01-12T15:42:54.324Z,8.70
2023-01-12T15:45:31.020Z,8.50
2023-01-12T15:47:58.431Z,8.40
2023-01-12T15:50:26.822Z,8.20
2023-01-12T15:52:54.957Z,8.10
2023-01-12T15:55:23.173Z,7.90
2023-01-12T15:57:55.729Z,7.80
2023-01-12T16:00:27.467Z,7.80
2023-01-12T16:02:54.754Z,7.70
2023-01-12T16:05:28.903Z,7.60
2023-01-12T16:07:56.288Z,7.60
2023-01-12T16:10:24.170Z,7.60
2023-01-12T16:12:51.807Z,7.60
2023-01-12T16:15:24.933Z,7.60
2023-01-12T16:17:53.500Z,7.60
2023-01-12T16:20:21.473Z,7.70
2023-01-12T16:22:49.386Z,7.70
2023-01-12T16:25:17.853Z,7.70
2023-01-12T16:27:45.875Z,7.70
2023-01-12T16:30:15.385Z,7.60
2023-01-12T16:32:47.256Z,7.50
2023-01-12T16:35:15.951Z,7.50
2023-01-12T16:37:44.949Z,7.40
2023-01-12T16:40:13.293Z,7.30
2023-01-12T16:42:40.835Z,7.20
2023-01-12T16:45:08.553Z,7.10
2023-01-12T16:47:36.626Z,7.10
2023-01-12T16:50:04.107Z,7.00
2023-01-12T16:52:31.613Z,6.90
2023-01-12T16:54:58.937Z,6.90
2023-01-12T16:57:26.354Z,6.90
2023-01-12T16:59:54.296Z,6.80
2023-01-12T17:02:21.917Z,6.80
2023-01-12T17:04:52.788Z,6.80
2023-01-12T17:07:21.114Z,6.70
2023-01-12T17:09:49.399Z,6.70
2023-01-12T17:12:17.328Z,6.60
2023-01-12T17:14:45.070Z,6.50
2023-01-12T17:17:13.245Z,6.50
2023-01-12T17:19:44.103Z,6.40
2023-01-12T17:22:12.673Z,6.50
2023-01-12T17:24:41.148Z,6.40
2023-01-12T17:27:10.182Z,6.30
2023-01-12T17:29:37.887Z,6.30
2023-01-12T17:32:06.983Z,6.30
2023-01-12T17:34:38.966Z,6.30
2023-01-12T17:37:08.873Z,6.20
2023-01-12T17:39:43.480Z,6.20
2023-01-12T17:42:34.859Z,6.10
2023-01-12T17:45:04.448Z,6.10
2023-01-12T17:47:32.204Z,6.00
2023-01-12T17:49:59.754Z,6.10
2023-01-12T17:52:27.239Z,6.10
2023-01-12T17:54:55.077Z,6.10
2023-01-12T17:57:22.532Z,6.10
2023-01-12T17:59:50.541Z,6.10
2023-01-12T18:02:18.583Z,6.30
2023-01-12T18:04:46.992Z,6.40
2023-01-12T18:07:14.625Z,6.40
2023-01-12T18:09:42.433Z,6.30
2023-01-12T18:12:11.114Z,6.20
2023-01-12T18:14:39.942Z,6.00
2023-01-12T18:17:09.441Z,6.00
2023-01-12T18:19:37.649Z,5.90
2023-01-12T18:22:07.333Z,6.00
2023-01-12T18:24:36.207Z,5.90
2023-01-12T18:27:04.408Z,5.90
2023-01-12T18:29:32.220Z,6.00
2023-01-12T18:31:59.637Z,6.00
2023-01-12T18:34:27.166Z,6.10
2023-01-12T18:36:54.623Z,6.10
2023-01-12T18:39:22.120Z,6.10
2023-01-12T18:42:11.193Z,6.20
2023-01-12T18:44:39.457Z,6.30
2023-01-12T18:47:25.413Z,6.20
2023-01-12T18:49:57.935Z,6.10
2023-01-12T18:52:45.045Z,6.10
2023-01-12T18:55:13.055Z,6.10
2023-01-12T18:57:40.338Z,6.20
2023-01-12T19:00:16.031Z,6.20
2023-01-12T19:02:45.126Z,6.10
2023-01-12T19:05:20.716Z,6.10
2023-01-12T19:08:00.183Z,6.20
2023-01-12T19:10:31.857Z,6.10
2023-01-12T19:13:19.094Z,6.00
2023-01-12T19:16:05.616Z,5.90
2023-01-12T19:18:35.562Z,5.80
2023-01-12T19:21:25.867Z,5.70
2023-01-12T19:24:12.178Z,5.70
2023-01-12T19:26:58.215Z,5.60
2023-01-12T19:29:26.215Z,5.60
2023-01-12T19:31:53.863Z,5.50
2023-01-12T19:34:21.717Z,5.40
2023-01-12T19:36:49.386Z,5.40
2023-01-12T19:39:25.048Z,5.40
2023-01-12T19:42:10.885Z,5.40
2023-01-12T19:44:38.224Z,5.40
2023-01-12T19:47:06.065Z,5.50
2023-01-12T19:49:33.517Z,5.50
2023-01-12T19:52:00.878Z,5.50
2023-01-12T19:54:29.967Z,5.60
2023-01-12T19:56:59.707Z,5.50
2023-01-12T19:59:27.859Z,5.60
2023-01-12T20:01:55.516Z,5.50
2023-01-12T20:04:25.914Z,5.50
2023-01-12T20:06:53.682Z,5.50
2023-01-12T20:09:21.039Z,5.60
2023-01-12T20:11:54.751Z,5.60
2023-01-12T20:14:22.744Z,5.60
2023-01-12T20:16:50.174Z,5.60
2023-01-12T20:19:19.778Z,5.60
2023-01-12T20:21:48.289Z,5.50
2023-01-12T20:24:16.102Z,5.50
2023-01-12T20:26:43.786Z,5.60
2023-01-12T20:29:11.371Z,5.50
2023-01-12T20:31:39.492Z,5.60
2023-01-12T20:34:06.996Z,5.60
2023-01-12T20:36:34.418Z,5.60
2023-01-12T20:39:01.773Z,5.60
2023-01-12T20:41:29.116Z,5.60
2023-01-12T20:43:56.501Z,5.50
2023-01-12T20:46:24.011Z,5.60
2023-01-12T20:48:51.455Z,5.60
2023-01-12T20:51:18.819Z,5.60
2023-01-12T20:53:46.108Z,5.60
2023-01-12T20:56:13.537Z,5.60
2023-01-12T20:58:40.828Z,5.70
2023-01-12T21:01:12.985Z,5.70
2023-01-12T21:03:40.443Z,5.70
2023-01-12T21:06:12.629Z,5.70
2023-01-12T21:08:41.011Z,5.80
2023-01-12T21:11:08.478Z,5.90
2023-01-12T21:13:37.132Z,6.00
2023-01-12T21:16:07.143Z,6.00
2023-01-12T21:18:35.629Z,6.00
2023-01-12T21:21:04.319Z,6.20
2023-01-12T21:23:32.650Z,6.20
2023-01-12T21:26:00.113Z,6.20
2023-01-12T21:28:30.045Z,6.20
2023-01-12T21:31:01.738Z,6.20
2023-01-12T21:33:30.286Z,6.20
2023-01-12T21:35:58.776Z,6.30
2023-01-12T21:38:26.849Z,6.40
2023-01-12T21:40:55.125Z,6.40
2023-01-12T21:43:23.207Z,6.40
2023-01-12T21:45:53.941Z,6.50
2023-01-12T21:48:23.614Z,6.60
2023-01-12T21:50:51.104Z,6.60
2023-01-12T21:53:22.901Z,6.50
2023-01-12T21:55:58.869Z,6.50
2023-01-12T21:58:27.336Z,6.40
2023-01-12T22:00:55.536Z,6.40
2023-01-12T22:03:29.338Z,6.30
2023-01-12T22:05:57.186Z,6.30
2023-01-12T22:08:24.422Z,6.30
2023-01-12T22:10:51.862Z,6.20
2023-01-12T22:13:19.422Z,6.20
2023-01-12T22:15:51.373Z,6.20
2023-01-12T22:18:19.263Z,6.20
2023-01-12T22:20:47.203Z,6.20
2023-01-12T22:23:14.686Z,6.20
2023-01-12T22:25:42.389Z,6.20
2023-01-12T22:28:09.706Z,6.10
2023-01-12T22:30:37.640Z,6.20
2023-01-12T22:33:05.377Z,6.20
2023-01-12T22:35:34.476Z,6.20
2023-01-12T22:38:01.709Z,6.20
2023-01-12T22:40:29.268Z,6.20
2023-01-12T22:43:15.175Z,6.20
2023-01-12T22:45:42.831Z,6.20
2023-01-12T22:48:10.435Z,6.20
2023-01-12T22:50:37.841Z,6.20
2023-01-12T22:53:05.217Z,6.20
2023-01-12T22:55:32.785Z,6.20
2023-01-12T22:58:00.419Z,6.10
2023-01-12T23:00:27.847Z,6.20
2023-01-12T23:03:01.610Z,6.20
2023-01-12T23:05:36.522Z,6.20
2023-01-12T23:08:07.449Z,6.20
2023-01-12T23:10:35.896Z,6.20
2023-01-12T23:13:31.942Z,6.20
2023-01-12T23:16:03.963Z,6.20
2023-01-12T23:18:34.603Z,6.20
2023-01-12T23:21:14.635Z,6.30
2023-01-12T23:23:49.430Z,6.20
2023-01-12T23:26:23.567Z,6.30
2023-01-12T23:28:56.632Z,6.30
2023-01-12T23:31:26.916Z,6.30
2023-01-12T23:33:54.811Z,6.30
2023-01-12T23:36:25.450Z,6.40
2023-01-12T23:38:54.719Z,6.40
2023-01-12T23:41:25.764Z,6.40
2023-01-12T23:43:57.286Z,6.40
2023-01-12T23:46:25.135Z,6.40
2023-01-12T23:48:55.349Z,6.40
2023-01-12T23:51:24.762Z,6.60
2023-01-12T23:53:53.512Z,6.70
2023-01-12T23:56:21.240Z,6.80
2023-01-12T23:58:49.116Z,6.90
